الصفحة الرئيسية
METAR-TAF:

METAR-TAF

مطار :

ميتيليني-لسبوس, اليونان

دائرة عرض: 39-04N, خط طول: 026-36E, ارتفاع: 3 متر

مراقبة الطقس الحالي

تاريخ ووقت الإصدار 11 دقيقة قبل الساعة 06:50UTC
ريح 4 عقدة من الشمال الغربي
درجة الحرارة 30°درجة مئوية
الرطوبة 55%
ضغط 1009 hPa
الرؤية 10 كم أو أكثر
الغيوم لا تقل 1500 م ولا وجود لمزنة ركامية السحاب الأسود

METAR: LGMT 190650Z 32004KT CAVOK 30/20 Q1009

زمن: 10:01 (07:01 UTC)

توقعات

تاريخ ووقت الإصدار 2ساعات و 1 دقيقة قبل الساعة 05:00UTC
التوقعات صالحة من19 الساعة 06 UTC إلى 19 الساعة 15 UTC
ريح 15 عقدة من الشمال
الرؤية 10 كم أو أكثر
غيوم قليلة على ارتفاع 3000 قدم
مؤقت
من 19 الساعة 06 UTC إلى 19 الساعة 15 UTC
ريح 15 عقدة من الشمال تتزايد حتى 25 عقدة

TAF: LGMT 190500Z 1906/1915 36015KT 9999 FEW030 TEMPO 1906/1915 36015G25KT

أرصاد الطقس والتوقعات من أكثر من 4000 مطار (تقارير الطقس للمطار METAR والتنبؤ بالطقس بالمطارTAF).

المحطات المتاحة هي النقط الصفراء والحمراء على الخريطة.

حرك المؤشر فوق النقطة لمعرفة اسم المحطة.

ثم انقر لمعرفة أرصاد وتوقعات الطقس.

لتغيير الخارطة: اضغط على الأزرار الخضراء مع رمز الصليب الأسود للتكبير. على الزر الأخضر مع شرطة للتصغير، أو على الأسهم الخضراء للخرائط المجاورة.


METAR-TAF: